createdAt,value
2022-10-11T00:00:03.773Z,3.28
2022-10-11T00:03:08.387Z,3.41
2022-10-11T00:06:11.473Z,3.17
2022-10-11T00:09:15.284Z,2.66
2022-10-11T00:12:18.257Z,2.25
2022-10-11T00:15:22.574Z,2.02
2022-10-11T00:18:26.009Z,2.03
2022-10-11T00:21:28.991Z,2.11
2022-10-11T00:24:32.045Z,2.26
2022-10-11T00:27:36.396Z,2.37
2022-10-11T00:30:44.293Z,2.51
2022-10-11T00:33:48.051Z,2.53
2022-10-11T00:36:51.183Z,2.54
2022-10-11T00:39:54.848Z,2.61
2022-10-11T00:42:57.811Z,2.80
2022-10-11T00:46:08.214Z,3.08
2022-10-11T00:49:20.346Z,3.30
2022-10-11T00:52:34.661Z,3.35
2022-10-11T00:55:42.502Z,3.37
2022-10-11T00:58:45.586Z,3.41
2022-10-11T01:01:48.655Z,3.46
2022-10-11T01:05:11.459Z,3.56
2022-10-11T01:08:15.652Z,3.73
2022-10-11T01:11:21.992Z,3.83
2022-10-11T01:14:38.852Z,3.99
2022-10-11T01:17:50.593Z,4.11
2022-10-11T01:20:57.054Z,4.29
2022-10-11T01:24:08.665Z,4.45
2022-10-11T01:27:26.973Z,4.60
2022-10-11T01:30:35.144Z,4.75
2022-10-11T01:33:46.312Z,4.79
2022-10-11T01:37:02.398Z,4.79
2022-10-11T01:40:05.615Z,4.77
2022-10-11T01:43:10.820Z,4.86
2022-10-11T01:46:14.372Z,4.96
2022-10-11T01:49:17.387Z,5.00
2022-10-11T01:52:20.483Z,5.06
2022-10-11T01:55:39.138Z,5.13
2022-10-11T01:59:01.479Z,5.15
2022-10-11T02:02:22.650Z,5.25
2022-10-11T02:05:43.706Z,5.37
2022-10-11T02:09:08.268Z,5.50
2022-10-11T02:12:14.080Z,5.54
2022-10-11T02:15:18.300Z,5.56
2022-10-11T02:18:27.493Z,5.59
2022-10-11T02:21:31.823Z,5.68
2022-10-11T02:24:39.033Z,5.79
2022-10-11T02:27:45.635Z,5.90
2022-10-11T02:30:51.576Z,6.03
2022-10-11T02:34:19.455Z,6.13
2022-10-11T02:37:42.019Z,6.23
2022-10-11T02:40:49.419Z,6.31
2022-10-11T02:44:10.182Z,6.41
2022-10-11T02:47:14.817Z,6.42
2022-10-11T02:50:18.509Z,6.48
2022-10-11T02:53:22.305Z,6.59
2022-10-11T02:56:25.411Z,6.68
2022-10-11T02:59:28.526Z,6.79
2022-10-11T03:02:31.527Z,6.92
2022-10-11T03:05:41.004Z,7.06
2022-10-11T03:08:43.902Z,7.22
2022-10-11T03:11:47.007Z,7.31
2022-10-11T03:14:50.110Z,7.41
2022-10-11T03:17:53.253Z,7.59
2022-10-11T03:20:56.420Z,7.71
2022-10-11T03:23:59.524Z,7.84
2022-10-11T03:27:02.501Z,7.95
2022-10-11T03:30:06.407Z,8.09
2022-10-11T03:33:09.366Z,8.26
2022-10-11T03:36:12.354Z,8.44
2022-10-11T03:39:15.446Z,8.62
2022-10-11T03:42:18.434Z,8.76
2022-10-11T03:45:21.387Z,8.89
2022-10-11T03:48:24.690Z,8.96
2022-10-11T03:51:27.859Z,9.01
2022-10-11T03:54:30.838Z,9.08
2022-10-11T03:57:34.033Z,9.14
2022-10-11T04:00:37.952Z,9.20
2022-10-11T04:03:41.047Z,9.31
2022-10-11T04:06:44.146Z,9.42
2022-10-11T04:09:47.163Z,9.52
2022-10-11T04:12:50.201Z,9.60
2022-10-11T04:15:53.291Z,9.68
2022-10-11T04:18:56.408Z,9.78
2022-10-11T04:21:59.405Z,9.83
2022-10-11T04:25:02.399Z,9.88
2022-10-11T04:28:05.587Z,9.96
2022-10-11T04:31:08.671Z,10.06
2022-10-11T04:34:11.761Z,10.18
2022-10-11T04:37:14.958Z,10.33
2022-10-11T04:40:18.032Z,10.41
2022-10-11T04:43:21.522Z,10.48
2022-10-11T04:46:25.050Z,10.54
2022-10-11T04:49:28.110Z,10.68
2022-10-11T04:52:31.268Z,10.83
2022-10-11T04:55:34.355Z,10.94
2022-10-11T04:58:38.517Z,11.06
2022-10-11T05:01:41.554Z,11.22
2022-10-11T05:04:44.621Z,11.44
2022-10-11T05:07:47.849Z,11.63
2022-10-11T05:11:02.203Z,11.81
2022-10-11T05:14:05.186Z,11.90
2022-10-11T05:17:08.390Z,12.01
2022-10-11T05:20:13.243Z,12.04
2022-10-11T05:23:16.437Z,12.14
2022-10-11T05:26:20.812Z,12.20
2022-10-11T05:29:24.813Z,12.20
2022-10-11T05:32:28.163Z,12.24
2022-10-11T05:35:31.305Z,12.28
2022-10-11T05:38:34.383Z,12.31
2022-10-11T05:41:37.696Z,12.37
2022-10-11T05:44:40.869Z,12.33
2022-10-11T05:47:43.882Z,12.44
2022-10-11T05:50:46.846Z,12.51
2022-10-11T05:53:49.947Z,12.60
2022-10-11T05:56:53.060Z,12.69
2022-10-11T05:59:56.118Z,12.78
2022-10-11T06:02:59.229Z,12.92
2022-10-11T06:06:06.039Z,13.11
2022-10-11T06:09:09.254Z,13.18
2022-10-11T06:12:12.387Z,13.23
2022-10-11T06:15:15.550Z,13.28
2022-10-11T06:18:18.618Z,13.34
2022-10-11T06:21:22.512Z,13.48
2022-10-11T06:24:25.563Z,13.60
2022-10-11T06:27:28.660Z,13.61
2022-10-11T06:30:31.913Z,13.49
2022-10-11T06:33:35.892Z,13.48
2022-10-11T06:36:38.947Z,13.46
2022-10-11T06:39:42.023Z,13.47
2022-10-11T06:42:50.371Z,13.60
2022-10-11T06:45:53.419Z,13.67
2022-10-11T06:48:57.073Z,13.68
2022-10-11T06:52:00.223Z,13.66
2022-10-11T06:55:03.256Z,13.65
2022-10-11T06:58:06.330Z,13.64
2022-10-11T07:01:17.187Z,13.67
2022-10-11T07:04:20.243Z,13.74
2022-10-11T07:07:23.270Z,13.73
2022-10-11T07:10:26.290Z,13.76
2022-10-11T07:13:29.499Z,13.77
2022-10-11T07:16:32.504Z,13.80
2022-10-11T07:19:35.520Z,13.86
2022-10-11T07:22:38.572Z,13.85
2022-10-11T07:25:41.618Z,13.88
2022-10-11T07:28:45.365Z,13.90
2022-10-11T07:31:48.490Z,13.93
2022-10-11T07:34:51.617Z,13.96
2022-10-11T07:37:54.659Z,14.01
2022-10-11T07:40:58.395Z,14.02
2022-10-11T07:44:01.887Z,14.01
2022-10-11T07:47:08.953Z,13.99
2022-10-11T07:50:14.692Z,13.95
2022-10-11T07:53:17.867Z,13.90
2022-10-11T07:56:24.640Z,13.86
2022-10-11T07:59:27.669Z,13.82
2022-10-11T08:02:30.835Z,13.78
2022-10-11T08:05:34.857Z,13.75
2022-10-11T08:08:38.761Z,13.76
2022-10-11T08:11:41.848Z,13.78
2022-10-11T08:14:44.962Z,13.77
2022-10-11T08:17:48.362Z,13.73
2022-10-11T08:20:51.683Z,13.68
2022-10-11T08:23:54.626Z,13.68
2022-10-11T08:26:57.679Z,13.63
2022-10-11T08:30:01.889Z,13.62
2022-10-11T08:33:08.602Z,13.56
2022-10-11T08:36:13.560Z,13.47
2022-10-11T08:39:16.930Z,13.40
2022-10-11T08:42:32.048Z,13.34
2022-10-11T08:45:49.767Z,13.27
2022-10-11T08:48:53.290Z,13.13
2022-10-11T08:52:11.046Z,13.03
2022-10-11T08:55:27.352Z,12.94
2022-10-11T08:59:05.274Z,12.85
2022-10-11T09:03:06.310Z,12.75
2022-10-11T09:06:30.327Z,12.57
2022-10-11T09:09:48.335Z,12.37
2022-10-11T09:13:34.736Z,12.20
2022-10-11T09:16:46.478Z,11.99
2022-10-11T09:20:07.809Z,11.82
2022-10-11T09:23:48.082Z,11.76
2022-10-11T09:27:00.377Z,11.64
2022-10-11T09:30:15.083Z,11.47
2022-10-11T09:33:22.060Z,11.28
2022-10-11T09:36:56.990Z,11.07
2022-10-11T09:40:25.606Z,10.87
2022-10-11T09:43:28.855Z,10.66
2022-10-11T09:46:46.717Z,10.51
2022-10-11T09:50:02.179Z,10.37
2022-10-11T09:53:05.946Z,10.21
2022-10-11T09:56:09.816Z,10.10
2022-10-11T09:59:34.535Z,9.95
2022-10-11T10:02:49.531Z,9.82
2022-10-11T10:06:10.069Z,9.62
2022-10-11T10:09:31.163Z,9.40
2022-10-11T10:12:34.238Z,9.19
2022-10-11T10:15:38.704Z,9.09
2022-10-11T10:18:52.205Z,8.94
2022-10-11T10:21:56.982Z,8.81
2022-10-11T10:25:07.845Z,8.68
2022-10-11T10:28:37.835Z,8.58
2022-10-11T10:35:45.237Z,8.51
2022-10-11T10:39:02.195Z,8.43
2022-10-11T10:42:14.906Z,8.43
2022-10-11T10:45:21.795Z,8.51
2022-10-11T10:52:47.868Z,8.51
2022-10-11T10:56:06.376Z,8.49
2022-10-11T10:59:46.824Z,8.48
2022-10-11T11:03:12.971Z,8.39
2022-10-11T11:06:37.252Z,8.31
2022-10-11T11:09:55.852Z,8.21
2022-10-11T11:13:33.834Z,8.08
2022-10-11T11:17:06.857Z,7.97
2022-10-11T11:20:50.854Z,7.89
2022-10-11T11:24:30.074Z,7.89
2022-10-11T11:27:51.602Z,7.83
2022-10-11T11:31:07.898Z,7.77
2022-10-11T11:34:44.641Z,7.80
2022-10-11T11:37:48.928Z,7.89
2022-10-11T11:40:58.224Z,7.94
2022-10-11T11:44:11.795Z,7.93
2022-10-11T11:47:40.884Z,7.98
2022-10-11T11:50:47.437Z,8.06
2022-10-11T11:54:09.920Z,8.12
2022-10-11T11:57:35.866Z,8.17
2022-10-11T12:01:08.147Z,8.20
2022-10-11T12:04:31.448Z,8.24
2022-10-11T12:07:49.692Z,8.25
2022-10-11T12:10:56.469Z,8.23
2022-10-11T12:14:01.527Z,8.23
2022-10-11T12:17:25.852Z,8.23
2022-10-11T12:20:33.371Z,8.17
2022-10-11T12:23:42.539Z,8.08
2022-10-11T12:26:47.469Z,8.00
2022-10-11T12:29:50.640Z,7.95
2022-10-11T12:33:14.009Z,7.83
2022-10-11T12:36:30.854Z,7.76
2022-10-11T12:40:04.454Z,7.63
2022-10-11T12:43:16.674Z,7.53
2022-10-11T12:46:31.916Z,7.45
2022-10-11T12:49:46.858Z,7.47
2022-10-11T12:53:04.257Z,7.40
2022-10-11T12:56:12.644Z,7.40
2022-10-11T12:59:22.726Z,7.43
2022-10-11T13:02:37.871Z,7.47
2022-10-11T13:05:50.987Z,7.50
2022-10-11T13:09:33.297Z,7.52
2022-10-11T13:12:42.454Z,7.49
2022-10-11T13:15:46.184Z,7.41
2022-10-11T13:18:51.781Z,7.41
2022-10-11T13:21:58.395Z,7.40
2022-10-11T13:25:06.928Z,7.36
2022-10-11T13:28:10.828Z,7.32
2022-10-11T13:31:13.891Z,7.34
2022-10-11T13:34:22.371Z,7.38
2022-10-11T13:37:28.813Z,7.38
2022-10-11T13:40:32.687Z,7.39
2022-10-11T13:43:36.857Z,7.42
2022-10-11T13:46:41.771Z,7.44
2022-10-11T13:49:50.952Z,7.48
2022-10-11T13:53:00.952Z,7.43
2022-10-11T13:56:08.897Z,7.40
2022-10-11T13:59:20.477Z,7.38
2022-10-11T14:02:24.882Z,7.37
2022-10-11T14:05:36.061Z,7.35
2022-10-11T14:08:45.314Z,7.34
2022-10-11T14:11:48.836Z,7.33
2022-10-11T14:14:52.108Z,7.34
2022-10-11T14:17:55.351Z,7.37
2022-10-11T14:20:58.437Z,7.41
2022-10-11T14:24:11.343Z,7.44
2022-10-11T14:27:24.891Z,7.45
2022-10-11T14:30:29.017Z,7.48
2022-10-11T14:33:32.055Z,7.50
2022-10-11T14:36:35.455Z,7.53
2022-10-11T14:39:38.617Z,7.51
2022-10-11T14:42:45.366Z,7.51
2022-10-11T14:45:48.395Z,7.52
2022-10-11T14:48:56.281Z,7.52
2022-10-11T14:52:00.292Z,7.53
2022-10-11T14:55:04.581Z,7.51
2022-10-11T14:58:09.219Z,7.51
2022-10-11T15:01:16.960Z,7.51
2022-10-11T15:04:25.495Z,7.48
2022-10-11T15:07:28.491Z,7.46
2022-10-11T15:10:42.213Z,7.42
2022-10-11T15:13:45.879Z,7.45
2022-10-11T15:16:48.945Z,7.47
2022-10-11T15:19:52.025Z,7.44
2022-10-11T15:22:56.469Z,7.41
2022-10-11T15:25:59.518Z,7.38
2022-10-11T15:29:02.693Z,7.36
2022-10-11T15:32:05.794Z,7.32
2022-10-11T15:35:09.241Z,7.33
2022-10-11T15:38:21.313Z,7.31
2022-10-11T15:41:24.658Z,7.31
2022-10-11T15:44:27.865Z,7.29
2022-10-11T15:47:30.860Z,7.27
2022-10-11T15:50:37.965Z,7.28
2022-10-11T15:53:41.313Z,7.22
2022-10-11T15:56:44.329Z,7.23
2022-10-11T15:59:47.389Z,7.20
2022-10-11T16:02:55.122Z,7.18
2022-10-11T16:06:04.676Z,7.17
2022-10-11T16:09:08.390Z,7.11
2022-10-11T16:12:12.263Z,7.12
2022-10-11T16:15:16.085Z,7.07
2022-10-11T16:18:21.662Z,7.06
2022-10-11T16:21:24.844Z,7.02
2022-10-11T16:24:29.123Z,6.96
2022-10-11T16:27:32.845Z,6.91
2022-10-11T16:30:39.380Z,6.85
2022-10-11T16:33:48.642Z,6.84
2022-10-11T16:36:51.630Z,6.84
2022-10-11T16:39:54.656Z,6.84
2022-10-11T16:42:57.827Z,6.90
2022-10-11T16:46:00.772Z,6.93
2022-10-11T16:49:04.360Z,6.98
2022-10-11T16:52:07.459Z,7.03
2022-10-11T16:55:12.192Z,7.07
2022-10-11T16:58:15.269Z,7.12
2022-10-11T17:01:19.830Z,7.15
2022-10-11T17:04:23.308Z,7.15
2022-10-11T17:07:26.936Z,7.14
2022-10-11T17:10:39.854Z,7.14
2022-10-11T17:13:42.926Z,7.15
2022-10-11T17:16:46.119Z,7.14
2022-10-11T17:19:50.840Z,7.14
2022-10-11T17:22:54.076Z,7.15
2022-10-11T17:25:57.343Z,7.13
2022-10-11T17:29:02.808Z,7.16
2022-10-11T17:32:06.075Z,7.17
2022-10-11T17:35:09.240Z,7.15
2022-10-11T17:38:12.249Z,7.08
2022-10-11T17:41:16.838Z,7.08
2022-10-11T17:44:20.320Z,7.07
2022-10-11T17:47:23.294Z,7.02
2022-10-11T17:50:26.398Z,6.96
2022-10-11T17:53:29.378Z,7.00
2022-10-11T17:56:36.768Z,6.99
2022-10-11T17:59:40.879Z,6.98
2022-10-11T18:02:43.937Z,6.97
2022-10-11T18:05:46.947Z,6.94
2022-10-11T18:08:52.168Z,6.94
2022-10-11T18:11:55.464Z,6.95
2022-10-11T18:14:58.394Z,6.90
2022-10-11T18:18:01.459Z,6.84
2022-10-11T18:21:04.578Z,6.76
2022-10-11T18:24:12.155Z,6.71
2022-10-11T18:27:15.138Z,6.60
2022-10-11T18:30:18.188Z,6.53
2022-10-11T18:33:21.155Z,6.44
2022-10-11T18:36:26.745Z,6.39
2022-10-11T18:39:29.858Z,6.38
2022-10-11T18:42:32.879Z,6.41
2022-10-11T18:45:35.849Z,6.40
2022-10-11T18:48:42.697Z,6.44
2022-10-11T18:51:46.203Z,6.42
2022-10-11T18:54:49.125Z,6.37
2022-10-11T18:57:52.201Z,6.35
2022-10-11T19:00:55.379Z,6.27
2022-10-11T19:04:00.486Z,6.20
2022-10-11T19:07:03.846Z,6.11
2022-10-11T19:10:07.355Z,6.06
2022-10-11T19:13:10.312Z,5.96
2022-10-11T19:16:18.953Z,5.90
2022-10-11T19:19:27.637Z,5.82
2022-10-11T19:22:30.691Z,5.72
2022-10-11T19:25:37.562Z,5.65
2022-10-11T19:28:40.595Z,5.56
2022-10-11T19:31:46.147Z,5.58
2022-10-11T19:34:49.150Z,5.54
2022-10-11T19:37:52.171Z,5.57
2022-10-11T19:40:55.264Z,5.58
2022-10-11T19:44:01.285Z,5.60
2022-10-11T19:47:05.509Z,5.63
2022-10-11T19:50:09.027Z,5.68
2022-10-11T19:53:12.010Z,5.73
2022-10-11T19:56:17.622Z,5.83
2022-10-11T19:59:22.514Z,5.90
2022-10-11T20:02:25.278Z,6.00
2022-10-11T20:05:28.335Z,5.95
2022-10-11T20:08:32.030Z,5.91
2022-10-11T20:11:35.069Z,5.90
2022-10-11T20:14:38.105Z,5.88
2022-10-11T20:17:50.501Z,5.85
2022-10-11T20:20:55.431Z,5.83
2022-10-11T20:24:00.202Z,5.82
2022-10-11T20:27:04.992Z,5.72
2022-10-11T20:30:08.391Z,5.60
2022-10-11T20:33:11.469Z,5.49
2022-10-11T20:36:22.479Z,5.40
2022-10-11T20:39:25.912Z,5.33
2022-10-11T20:42:29.922Z,5.24
2022-10-11T20:45:33.116Z,5.21
2022-10-11T20:48:37.651Z,5.17
2022-10-11T20:51:42.265Z,5.10
2022-10-11T20:54:45.250Z,5.02
2022-10-11T20:57:48.240Z,4.95
2022-10-11T21:00:58.207Z,4.87
2022-10-11T21:04:02.731Z,4.80
2022-10-11T21:07:05.653Z,4.74
2022-10-11T21:10:08.815Z,4.70
2022-10-11T21:13:11.781Z,4.66
2022-10-11T21:16:16.724Z,4.60
2022-10-11T21:19:19.422Z,4.62
2022-10-11T21:22:22.564Z,4.50
2022-10-11T21:25:25.525Z,4.40
2022-10-11T21:28:28.541Z,4.31
2022-10-11T21:31:34.285Z,4.24
2022-10-11T21:34:37.536Z,4.17
2022-10-11T21:37:40.644Z,4.15
2022-10-11T21:40:43.616Z,4.11
2022-10-11T21:43:47.739Z,4.06
2022-10-11T21:47:07.491Z,4.01
2022-10-11T21:50:11.237Z,4.00
2022-10-11T21:53:14.189Z,3.94
2022-10-11T21:56:17.244Z,3.91
2022-10-11T21:59:20.225Z,3.83
2022-10-11T22:02:23.268Z,3.91
2022-10-11T22:05:26.261Z,3.88
2022-10-11T22:08:29.367Z,3.89
2022-10-11T22:11:32.665Z,3.84
2022-10-11T22:14:35.735Z,3.79
2022-10-11T22:17:38.759Z,3.74
2022-10-11T22:20:42.066Z,3.69
2022-10-11T22:23:47.583Z,3.66
2022-10-11T22:26:50.560Z,3.64
2022-10-11T22:29:53.543Z,3.61
2022-10-11T22:32:56.920Z,3.63
2022-10-11T22:36:02.259Z,3.65
2022-10-11T22:39:08.452Z,3.64
2022-10-11T22:42:11.503Z,3.62
2022-10-11T22:45:14.616Z,3.59
2022-10-11T22:48:17.719Z,3.57
2022-10-11T22:51:20.733Z,3.60
2022-10-11T22:54:23.825Z,3.64
2022-10-11T22:57:26.836Z,3.70
2022-10-11T23:00:29.939Z,3.74
2022-10-11T23:03:33.033Z,3.84
2022-10-11T23:06:36.246Z,3.94
2022-10-11T23:09:39.346Z,4.02
2022-10-11T23:12:42.396Z,4.07
2022-10-11T23:15:45.553Z,4.12
2022-10-11T23:18:48.589Z,4.16
2022-10-11T23:21:51.741Z,4.20
2022-10-11T23:24:54.772Z,4.25
2022-10-11T23:28:00.107Z,4.30
2022-10-11T23:31:09.279Z,4.39
2022-10-11T23:34:12.235Z,4.42
2022-10-11T23:37:15.291Z,4.47
2022-10-11T23:40:18.507Z,4.55
2022-10-11T23:43:21.559Z,5.04
2022-10-11T23:46:24.592Z,5.67
2022-10-11T23:49:27.607Z,6.06
2022-10-11T23:52:30.725Z,6.19
2022-10-11T23:55:33.746Z,6.49
2022-10-11T23:58:37.089Z,7.29
